Terminal Aerodrome Forecast
Issued by NWS

Home | Current Version | Previous Version | Text Only | Print | Product List | Glossary On
Versions: 1 2 3 4 5 6 7 8 9 10 11 12 13 14 15 16 17 18 19 20 21 22 23 24 25 26 27
000
FTUS41 KBTV 202332
TAFSLK
TAF
KSLK 202332Z 2100/2124 22010KT P6SM VCSH FEW020 BKN035 OVC050
     FM210600 24008KT P6SM OVC025
     FM211500 26010KT P6SM SCT020 BKN035=

USA.gov is the U.S. government's official web portal to all federal, state and local government web resources and services.